Latest Coastal Weather Observations for Port Kembla Harbour

IDN60701

Issued at 6:11 am EST Wednesday 4 May 2016 (issued every 10 minutes, with the page automatically refreshed every 10 minutes)

About coastal observations | Map of coastal stations | Coastal observations for NSW | Marine services | Other Formats
Station Details ID: 068253 Name: PORT KEMBLA NTC AWS Lat: -34.47 Lon: 150.91 Height: 0.0 m
Data from the previous 72 hours. | See also: Recent months for locations in New South Wales
Date/Time
EST
Temp

°C
Wind Pressure Rain
since 9am
mm
Weather Cloud Vis
km
Sea
Height
m
Swell
Dir
 
Speed
knots
Gust
knots
hPa Trend Height
m
Period
s
Dir
04/06:00am 15.5 SW 2 3 1011.7 - - - - - - - - -
04/05:30am 15.6 WSW 4 6 1011.3 - - - - - - - - -
04/05:00am 14.8 SW 4 6 1011.1 - - - - - - - - -
04/04:30am 15.8 SW 4 5 1010.8 - - - - - - - - -
04/04:00am 16.1 W 5 6 1010.3 - - - - - - - - -
04/03:30am 17.3 WNW 2 4 1010.0 - - - - - - - - -
04/03:00am 18.3 NNW 5 7 1009.9 - - - - - - - - -
04/02:30am 18.5 WNW 3 6 1009.8 - - - - - - - - -
04/02:00am 18.5 NNW 5 7 1009.9 - - - - - - - - -
04/01:30am 18.3 NNW 4 7 1009.8 - - - - - - - - -
04/01:00am 18.1 WNW 4 7 1009.7 - - - - - - - - -
04/12:30am 18.7 NW 5 8 1009.7 - - - - - - - - -
04/12:00am 18.7 N 4 7 1009.7 - - - - - - - - -
 
Date/Time
EST
Temp

°C
Wind Pressure Rain
since 9am
mm
Weather Cloud Vis
km
Sea
Height
m
Swell
Dir
 
Speed
knots
Gust
knots
hPa Trend Height
m
Period
s
Dir
03/11:30pm 19.4 N 5 7 1009.8 - - - - - - - - -
03/11:00pm 20.0 N 4 6 1009.7 - - - - - - - - -
03/10:30pm 20.1 NW 4 7 1009.6 - - - - - - - - -
03/10:00pm 19.6 NW 4 7 1009.4 - - - - - - - - -
03/09:30pm 20.4 NNW 6 9 1009.1 - - - - - - - - -
03/09:00pm 20.8 NNW 9 15 1008.6 - - - - - - - - -
03/08:30pm 21.0 NW 7 10 1008.2 - - - - - - - - -
03/08:00pm 21.0 NW 10 14 1007.7 - - - - - - - - -
03/07:30pm 21.5 NW 9 12 1007.2 - - - - - - - - -
03/07:00pm 21.7 NW 11 17 1006.9 - - - - - - - - -
03/06:30pm 22.1 WNW 10 14 1006.7 - - - - - - - - -
03/06:00pm 22.1 W 8 11 1006.4 - - - - - - - - -
03/05:30pm 22.3 W 6 9 1006.0 - - - - - - - - -
03/05:00pm 22.9 W 10 13 1005.6 - - - - - - - - -
03/04:30pm 23.9 W 10 15 1005.3 - - - - - - - - -
03/04:00pm 24.2 WNW 10 18 1005.0 - - - - - - - - -
03/03:30pm 24.3 WNW 9 15 1005.1 - - - - - - - - -
03/03:00pm 24.0 WNW 13 24 1005.1 - - - - - - - - -
03/02:47pm 24.2 WNW 15 25 1005.1 - - - - - - - - -
03/02:30pm 23.7 WNW 11 17 1005.3 - - - - - - - - -
03/02:00pm 23.8 WNW 16 23 1005.6 - - - - - - - - -
03/01:48pm 23.7 WNW 15 26 1005.9 - - - - - - - - -
03/01:30pm 23.4 WNW 14 21 1006.0 - - - - - - - - -
03/01:00pm 23.2 WNW 12 20 1006.4 - - - - - - - - -
03/12:30pm 22.3 NNW 11 17 1006.9 - - - - - - - - -
03/12:00pm 21.8 NW 8 13 1007.5 - - - - - - - - -
03/11:30am 21.1 NW 9 17 1008.2 - - - - - - - - -
03/11:00am 20.6 WNW 15 27 1009.0 - - - - - - - - -
03/10:56am 20.6 WNW 13 27 1009.0 - - - - - - - - -
03/10:30am 20.0 NNW 11 18 1009.7 - - - - - - - - -
03/10:00am 19.5 NNW 9 14 1010.3 - - - - - - - - -
03/09:30am 18.8 NNW 11 17 1010.6 - - - - - - - - -
03/09:00am 18.7 N 6 11 1011.2 - - - - - - - - -
03/08:30am 18.6 N 3 8 1011.3 - - - - - - - - -
03/08:00am 18.5 WNW 3 9 1011.1 - - - - - - - - -
03/07:30am 17.9 WNW 6 15 1011.1 - - - - - - - - -
03/07:00am 17.1 SSE 1 3 1011.2 - - - - - - - - -
03/06:30am 17.4 WNW 4 8 1011.1 - - - - - - - - -
03/06:00am 17.7 W 5 11 1010.8 - - - - - - - - -
03/05:30am 17.9 NNW 8 11 1010.5 - - - - - - - - -
03/05:00am 18.0 NW 5 11 1010.6 - - - - - - - - -
03/04:30am 17.9 W 9 17 1010.7 - - - - - - - - -
03/04:00am 18.0 W 11 19 1010.6 - - - - - - - - -
03/03:30am 18.0 W 13 18 1010.5 - - - - - - - - -
03/03:00am 16.9 WSW 6 12 1010.7 - - - - - - - - -
03/02:30am 17.5 SW 4 15 1010.9 - - - - - - - - -
03/02:00am 16.3 SW 4 6 1011.3 - - - - - - - - -
03/01:30am 15.5 SW 4 7 1011.7 - - - - - - - - -
03/01:00am 15.2 SW 6 8 1012.0 - - - - - - - - -
03/12:30am 15.5 WSW 6 8 1012.5 - - - - - - - - -
03/12:00am 15.4 WSW 11 13 1012.8 - - - - - - - - -
 
Date/Time
EST
Temp

°C
Wind Pressure Rain
since 9am
mm
Weather Cloud Vis
km
Sea
Height
m
Swell
Dir
 
Speed
knots
Gust
knots
hPa Trend Height
m
Period
s
Dir
02/11:30pm 15.3 WSW 9 12 1012.9 - - - - - - - - -
02/11:00pm 16.4 WSW 10 13 1013.0 - - - - - - - - -
02/10:30pm 17.0 WSW 12 15 1013.0 - - - - - - - - -
02/10:00pm 17.2 SW 7 9 1013.6 - - - - - - - - -
02/09:30pm 17.9 WSW 8 13 1014.0 - - - - - - - - -
02/09:00pm 18.2 WSW 8 11 1014.0 - - - - - - - - -
02/08:30pm 18.4 W 6 9 1013.4 - - - - - - - - -
02/08:00pm 18.9 WNW 7 10 1013.2 - - - - - - - - -
02/07:30pm 19.6 W 8 12 1013.3 - - - - - - - - -
02/07:00pm 19.4 WSW 6 8 1012.7 - - - - - - - - -
02/06:30pm 18.2 W 5 7 1012.5 - - - - - - - - -
02/06:00pm 18.7 SW 3 4 1011.4 - - - - - - - - -
02/05:30pm 19.5 N 6 8 1011.6 - - - - - - - - -
02/05:00pm 19.7 NNE 8 11 1011.3 - - - - - - - - -
02/04:30pm 19.8 NNE 8 11 1011.4 - - - - - - - - -
02/04:00pm 19.8 NNE 10 13 1011.4 - - - - - - - - -
02/03:30pm 19.9 NE 11 14 1011.7 - - - - - - - - -
02/03:00pm 20.6 NNE 7 11 1011.5 - - - - - - - - -
02/02:30pm 20.5 NE 4 7 1011.5 - - - - - - - - -
02/02:00pm 20.1 ENE 4 6 1011.3 - - - - - - - - -
02/01:30pm 19.2 ENE 9 11 1011.5 - - - - - - - - -
02/01:00pm 19.4 NE 8 12 1012.8 - - - - - - - - -
02/12:30pm 19.3 ENE 5 7 1012.5 - - - - - - - - -
02/12:00pm 18.8 NE 5 10 1013.0 - - - - - - - - -
02/11:30am 18.8 NNE 3 7 1013.7 - - - - - - - - -
02/11:00am 19.0 NNE 3 4 1014.2 - - - - - - - - -
02/10:30am 19.0 N 2 6 1014.9 - - - - - - - - -
02/10:00am 18.4 N 3 7 1015.4 - - - - - - - - -
02/09:30am 16.6 W 8 14 1015.9 - - - - - - - - -
02/09:00am 15.9 WNW 7 11 1016.4 - - - - - - - - -
02/08:30am 15.4 WNW 9 14 1016.6 - - - - - - - - -
02/08:00am 15.3 WNW 7 12 1016.5 - - - - - - - - -
02/07:30am 14.8 NNW 10 13 1016.5 - - - - - - - - -
02/07:00am 14.8 N 8 12 1016.3 - - - - - - - - -
02/06:30am 15.0 N 8 12 1016.4 - - - - - - - - -
02/06:00am 15.5 NNW 5 7 1016.1 - - - - - - - - -
02/05:30am 15.4 NNW 4 7 1015.7 - - - - - - - - -
02/05:00am 15.4 W 4 6 1015.3 - - - - - - - - -
02/04:30am 15.4 SSW 2 3 1014.9 - - - - - - - - -
02/04:00am 15.6 NW 1 3 1014.8 - - - - - - - - -
02/03:30am 15.6 SE 2 4 1014.6 - - - - - - - - -
02/03:00am 15.9 WSW 5 9 1014.5 - - - - - - - - -
02/02:30am 16.8 W 13 19 1014.6 - - - - - - - - -
02/02:00am 16.9 W 15 21 1015.1 - - - - - - - - -
02/01:30am 16.7 W 11 14 1015.0 - - - - - - - - -
02/01:00am 17.0 W 9 13 1015.2 - - - - - - - - -
02/12:30am 17.5 W 10 15 1015.3 - - - - - - - - -
02/12:00am 17.6 W 9 11 1015.6 - - - - - - - - -
 
Date/Time
EST
Temp

°C
Wind Pressure Rain
since 9am
mm
Weather Cloud Vis
km
Sea
Height
m
Swell
Dir
 
Speed
knots
Gust
knots
hPa Trend Height
m
Period
s
Dir
01/11:30pm 18.2 W 9 13 1015.7 - - - - - - - - -
01/11:00pm 18.5 W 8 11 1015.7 - - - - - - - - -
01/10:30pm 18.3 WSW 6 10 1015.5 - - - - - - - - -
01/10:00pm 19.1 W 4 7 1015.4 - - - - - - - - -
01/09:30pm 19.6 W 10 16 1015.2 - - - - - - - - -
01/09:00pm 19.8 W 9 12 1014.5 - - - - - - - - -
01/08:30pm 20.6 W 18 26 1013.9 - - - - - - - - -
01/08:00pm 21.1 WSW 16 24 1013.3 - - - - - - - - -
01/07:30pm 21.5 WSW 14 21 1012.6 - - - - - - - - -
01/07:00pm 22.5 W 12 17 1012.1 - - - - - - - - -
01/06:30pm 23.0 W 11 15 1011.4 - - - - - - - - -
01/06:00pm 23.6 W 8 11 1010.7 - - - - - - - - -
01/05:30pm 24.8 W 14 19 1010.0 - - - - - - - - -
01/05:00pm 25.5 WNW 16 25 1009.4 - - - - - - - - -
01/04:52pm 25.7 W 15 25 1009.3 - - - - - - - - -
01/04:30pm 26.1 W 14 20 1008.9 - - - - - - - - -

Other Formats:

Comma delimited format used in spreadsheet applications
http://www.bom.gov.au/fwo/IDN60701/IDN60701.95745.axf

JavaScript Object Notation format (JSON) in row-major order
http://www.bom.gov.au/fwo/IDN60701/IDN60701.95745.json